ΕΜΥ, Εθνική Μετεωρολογική Υπηρεσία - Δελτία Καιρού, Προγνώσεις

ΑΕΡΟΝΑΥΤΙΛΙΑ

GREEK AIRPORTS CODES

LGMG 131300Z 00000KT 9999 FEW025 19/05 Q1016 RMK SCT080 BKN180=

EUROPEAN AIRPORTS CODES

LFPO 131330Z 05008KT 340V100 CAVOK 11/M03 Q1031 NOSIG=